Corvallis, OR

8:20 PM PST on November 25, 2014 (GMT -0800)
Mary's River Estates | Change Station
CLOSE
Current Station
Personal Weather Station
Location: Philomath, OR
Elevation: 463 ft
Nearby Weather Stations

Elev 463 ft 44.57 °N, 123.40 °W | Updated 2 seconds ago

Overcast
Overcast
55.3 °F
Feels Like 55.3 °F
N
1.8
Wind Variable Wind from ESE
Gusts 2.2 mph

Today
High -- | Low -- °F
--% Chance of Precip.
Yesterday
High -- | Low -- °F
Precip. -- in
7:22 AM 4:37 PM
Waxing Crescent, 16% visible
Pressure 30.33 in
Visibility 10.0 miles
Clouds Overcast 5000 ft
Dew Point 53 °F
Humidity 92%
Rainfall 0.02 in
Snow Depth Not available.
UV 0 out of 12
Pollen .10 out of 12
Air Quality Not available.
Flu Activity Not available.
METAR KCVO 260415Z AUTO 21007KT 10SM OVC050 14/12 A3033 RMK AO1

More Conditions Fewer Conditions

Pressure 30.33 in
Visibility 10.0 miles
Clouds Overcast 5000 ft
Dew Point 53 °F
Humidity 92%
Rainfall 0.02 in
Snow Depth Not available.
UV 0 out of 12
Pollen .10 out of 12
Air Quality Not available.
Flu Activity Not available.
METAR KCVO 260415Z AUTO 21007KT 10SM OVC050 14/12 A3033 RMK AO1

More Conditions Fewer Conditions

10-Day Weather Forecast

Almanac

Astronomy

Nov. 25, 2014 Rise Set
Actual Time
Civil Twilight
Nautical Twilight
Astronomical Twilight
Moon
Length of Visible Light
Length of Day
Tomorrow will be .
, % of the Moon is Illuminated

Today's Extremes

State Highs State Lows

Community

WunderPhotos

Upload Photos

1,773,683 photos uploaded!

WunderBlogs® & News

Nearby

Air Quality

  Air Quality AQ Index Pollutant
Not available.

Snow Depth

Station Depth Elevation

Earthquake Activity

City Distance Mag. Time & Date
Minimum magnitude displayed is 2.5.

Coastal Water Temperatures

Place Temperature

Nearby Weather Stations